Divino, Brazil
Current Conditions -  °F | °C
As of 11:00 PM on Sunday 23 Nov 2014 (Local Time) from SBCP Reporting Station
Overcast Overcast  
Wind Chill: 77°   Ceiling: 9000
Heat Index: 78°   Visibility: 6mi
Dew Point: 73°   Wind: 2mph
Humidity: 89%   Direction: 180°S
Pressure: 29.97"   Gusts: NA
Location:  20.61°S, 42.15°W
Report Text: SBCP 240100Z 18002KT 9999 SCT020 OVC090 25/23 Q1015
Loading
Personal Weather Stations






























Interactive Weather Map New forecast layout! Learn more

10-Day Weather Forecast

Advertisements
Track Severe Weather on mobile